sensor_id;sensor_type;location;lat;lon;timestamp;pressure;altitude;pressure_sealevel;temperature;humidity
69622;BME280;56841;55.964;37.674;2022-07-03T00:01:19;99486.53;;;18.82;82.38
69622;BME280;56841;55.964;37.674;2022-07-03T00:03:45;99482.13;;;18.69;79.90
69622;BME280;56841;55.964;37.674;2022-07-03T00:06:11;99483.16;;;18.68;81.10
69622;BME280;56841;55.964;37.674;2022-07-03T00:08:37;99480.44;;;18.57;79.59
69622;BME280;56841;55.964;37.674;2022-07-03T00:11:04;99475.53;;;18.54;78.69
69622;BME280;56841;55.964;37.674;2022-07-03T00:13:30;99475.38;;;18.48;79.43
69622;BME280;56841;55.964;37.674;2022-07-03T00:15:56;99481.84;;;18.41;78.84
69622;BME280;56841;55.964;37.674;2022-07-03T00:18:22;99484.34;;;18.36;80.21
69622;BME280;56841;55.964;37.674;2022-07-03T00:20:49;99490.34;;;18.31;78.80
69622;BME280;56841;55.964;37.674;2022-07-03T00:23:21;99486.88;;;18.31;78.72
69622;BME280;56841;55.964;37.674;2022-07-03T00:25:49;99484.19;;;18.31;79.10
69622;BME280;56841;55.964;37.674;2022-07-03T00:28:18;99490.97;;;18.33;79.24
69622;BME280;56841;55.964;37.674;2022-07-03T00:30:47;99488.72;;;18.30;78.79
69622;BME280;56841;55.964;37.674;2022-07-03T00:33:14;99478.91;;;18.24;78.94
69622;BME280;56841;55.964;37.674;2022-07-03T00:35:42;99486.78;;;18.19;79.24
69622;BME280;56841;55.964;37.674;2022-07-03T00:38:11;99484.38;;;18.11;79.56
69622;BME280;56841;55.964;37.674;2022-07-03T00:40:38;99482.97;;;18.08;79.55
69622;BME280;56841;55.964;37.674;2022-07-03T00:43:04;99489.78;;;18.04;79.52
69622;BME280;56841;55.964;37.674;2022-07-03T00:45:34;99484.88;;;18.01;79.30
69622;BME280;56841;55.964;37.674;2022-07-03T00:48:00;99494.97;;;17.99;79.71
69622;BME280;56841;55.964;37.674;2022-07-03T00:50:33;99486.59;;;17.95;79.99
69622;BME280;56841;55.964;37.674;2022-07-03T00:53:02;99485.53;;;17.96;80.19
69622;BME280;56841;55.964;37.674;2022-07-03T00:55:29;99483.91;;;17.95;80.43
69622;BME280;56841;55.964;37.674;2022-07-03T00:57:56;99496.91;;;17.92;80.88
69622;BME280;56841;55.964;37.674;2022-07-03T01:00:22;99483.16;;;17.88;81.23
69622;BME280;56841;55.964;37.674;2022-07-03T01:03:05;99482.13;;;17.89;81.64
69622;BME280;56841;55.964;37.674;2022-07-03T01:05:38;99490.13;;;17.89;81.21
69622;BME280;56841;55.964;37.674;2022-07-03T01:08:29;99482.69;;;17.91;80.89
69622;BME280;56841;55.964;37.674;2022-07-03T01:24:55;99493.31;;;17.98;81.27
69622;BME280;56841;55.964;37.674;2022-07-03T01:27:28;99497.84;;;17.97;81.40
69622;BME280;56841;55.964;37.674;2022-07-03T01:30:06;99492.50;;;17.97;80.82
69622;BME280;56841;55.964;37.674;2022-07-03T01:32:38;99496.66;;;17.93;80.56
69622;BME280;56841;55.964;37.674;2022-07-03T01:35:08;99495.19;;;17.97;80.56
69622;BME280;56841;55.964;37.674;2022-07-03T01:37:35;99493.31;;;17.98;79.83
69622;BME280;56841;55.964;37.674;2022-07-03T01:40:03;99489.84;;;17.97;79.38
69622;BME280;56841;55.964;37.674;2022-07-03T01:42:32;99495.84;;;17.93;79.74
69622;BME280;56841;55.964;37.674;2022-07-03T01:44:59;99491.31;;;17.93;79.74
69622;BME280;56841;55.964;37.674;2022-07-03T01:47:26;99495.19;;;17.97;80.13
69622;BME280;56841;55.964;37.674;2022-07-03T01:49:54;99486.22;;;17.92;79.98
69622;BME280;56841;55.964;37.674;2022-07-03T01:52:20;99490.13;;;17.89;79.77
69622;BME280;56841;55.964;37.674;2022-07-03T01:54:48;99489.31;;;17.89;80.51
69622;BME280;56841;55.964;37.674;2022-07-03T01:57:15;99486.84;;;17.87;80.62
69622;BME280;56841;55.964;37.674;2022-07-03T01:59:41;99484.19;;;17.87;80.61
69622;BME280;56841;55.964;37.674;2022-07-03T02:02:22;99491.22;;;17.82;80.53
69622;BME280;56841;55.964;37.674;2022-07-03T02:05:03;99489.75;;;17.86;80.34
69622;BME280;56841;55.964;37.674;2022-07-03T02:08:01;99480.75;;;17.80;80.63
69622;BME280;56841;55.964;37.674;2022-07-03T02:10:31;99484.22;;;17.81;79.92
69622;BME280;56841;55.964;37.674;2022-07-03T02:13:08;99489.56;;;17.81;79.44
69622;BME280;56841;55.964;37.674;2022-07-03T02:15:43;99488.31;;;17.83;78.97
69622;BME280;56841;55.964;37.674;2022-07-03T02:18:31;99483.22;;;17.82;79.14
69622;BME280;56841;55.964;37.674;2022-07-03T02:23:43;99488.88;;;17.92;78.68
69622;BME280;56841;55.964;37.674;2022-07-03T02:26:13;99491.13;;;17.95;78.53
69622;BME280;56841;55.964;37.674;2022-07-03T02:29:07;99485.94;;;18.00;78.79
69622;BME280;56841;55.964;37.674;2022-07-03T02:32:00;99496.00;;;17.98;78.78
69622;BME280;56841;55.964;37.674;2022-07-03T02:34:30;99490.22;;;18.01;78.50
69622;BME280;56841;55.964;37.674;2022-07-03T02:37:01;99489.78;;;18.04;78.53
69622;BME280;56841;55.964;37.674;2022-07-03T02:39:57;99491.81;;;18.09;78.44
69622;BME280;56841;55.964;37.674;2022-07-03T02:42:48;99487.22;;;18.16;78.44
69622;BME280;56841;55.964;37.674;2022-07-03T02:45:21;99493.16;;;18.18;78.15
69622;BME280;56841;55.964;37.674;2022-07-03T02:47:57;99485.00;;;18.31;77.74
69622;BME280;56841;55.964;37.674;2022-07-03T02:50:28;99484.28;;;18.42;77.46
69622;BME280;56841;55.964;37.674;2022-07-03T02:53:03;99489.03;;;18.59;76.72
69622;BME280;56841;55.964;37.674;2022-07-03T02:55:43;99477.41;;;18.72;75.96
69622;BME280;56841;55.964;37.674;2022-07-03T03:04:14;99474.06;;;18.94;75.55
69622;BME280;56841;55.964;37.674;2022-07-03T03:07:01;99483.25;;;18.99;75.82
69622;BME280;56841;55.964;37.674;2022-07-03T03:09:34;99491.19;;;19.05;75.52
69622;BME280;56841;55.964;37.674;2022-07-03T03:12:05;99487.25;;;19.08;75.55
69622;BME280;56841;55.964;37.674;2022-07-03T03:17:06;99488.34;;;19.18;75.27
69622;BME280;56841;55.964;37.674;2022-07-03T03:19:36;99484.38;;;19.21;75.25
69622;BME280;56841;55.964;37.674;2022-07-03T03:24:50;99491.41;;;19.34;75.29
69622;BME280;56841;55.964;37.674;2022-07-03T03:27:16;99488.44;;;19.42;75.12
69622;BME280;56841;55.964;37.674;2022-07-03T03:29:43;99487.94;;;19.45;75.30
69622;BME280;56841;55.964;37.674;2022-07-03T03:32:10;99483.78;;;19.49;75.23
69622;BME280;56841;55.964;37.674;2022-07-03T03:34:37;99488.59;;;19.59;74.95
69622;BME280;56841;55.964;37.674;2022-07-03T03:37:05;99485.59;;;19.67;75.22
69622;BME280;56841;55.964;37.674;2022-07-03T03:39:31;99491.78;;;19.79;74.64
69622;BME280;56841;55.964;37.674;2022-07-03T03:41:57;99485.03;;;19.88;74.75
69622;BME280;56841;55.964;37.674;2022-07-03T03:44:22;99483.53;;;19.93;73.70
69622;BME280;56841;55.964;37.674;2022-07-03T03:46:50;99481.09;;;19.91;73.93
69622;BME280;56841;55.964;37.674;2022-07-03T03:49:16;99472.69;;;19.99;73.62
69622;BME280;56841;55.964;37.674;2022-07-03T03:51:42;99472.13;;;20.09;73.76
69622;BME280;56841;55.964;37.674;2022-07-03T03:54:08;99480.06;;;20.16;73.64
69622;BME280;56841;55.964;37.674;2022-07-03T03:56:33;99476.19;;;20.23;73.47
69622;BME280;56841;55.964;37.674;2022-07-03T03:58:59;99473.06;;;20.26;72.95
69622;BME280;56841;55.964;37.674;2022-07-03T04:01:25;99475.41;;;20.34;73.25
69622;BME280;56841;55.964;37.674;2022-07-03T04:03:51;99473.97;;;20.44;73.30
69622;BME280;56841;55.964;37.674;2022-07-03T04:06:19;99470.00;;;20.46;72.59
69622;BME280;56841;55.964;37.674;2022-07-03T04:08:45;99468.63;;;20.55;72.47
69622;BME280;56841;55.964;37.674;2022-07-03T04:11:11;99473.75;;;20.57;72.51
69622;BME280;56841;55.964;37.674;2022-07-03T04:13:37;99469.88;;;20.65;72.01
69622;BME280;56841;55.964;37.674;2022-07-03T04:16:03;99474.22;;;20.66;72.45
69622;BME280;56841;55.964;37.674;2022-07-03T04:18:29;99464.03;;;20.68;72.69
69622;BME280;56841;55.964;37.674;2022-07-03T04:20:55;99468.94;;;20.71;72.98
69622;BME280;56841;55.964;37.674;2022-07-03T04:23:21;99467.75;;;20.78;72.46
69622;BME280;56841;55.964;37.674;2022-07-03T04:25:47;99463.28;;;20.84;72.95
69622;BME280;56841;55.964;37.674;2022-07-03T04:28:13;99462.09;;;20.92;71.87
69622;BME280;56841;55.964;37.674;2022-07-03T04:30:39;99464.31;;;20.95;72.08
69622;BME280;56841;55.964;37.674;2022-07-03T04:33:05;99461.47;;;21.01;72.11
69622;BME280;56841;55.964;37.674;2022-07-03T04:35:30;99464.13;;;21.13;72.22
69622;BME280;56841;55.964;37.674;2022-07-03T04:37:56;99472.13;;;21.25;72.25
69622;BME280;56841;55.964;37.674;2022-07-03T04:40:22;99470.03;;;21.27;71.89
69622;BME280;56841;55.964;37.674;2022-07-03T04:42:48;99473.41;;;21.34;72.25
69622;BME280;56841;55.964;37.674;2022-07-03T04:45:14;99476.41;;;21.38;72.32
69622;BME280;56841;55.964;37.674;2022-07-03T04:47:40;99473.66;;;21.49;72.38
69622;BME280;56841;55.964;37.674;2022-07-03T04:50:06;99471.72;;;21.62;71.85
69622;BME280;56841;55.964;37.674;2022-07-03T04:52:32;99476.84;;;21.63;71.24
69622;BME280;56841;55.964;37.674;2022-07-03T04:54:58;99471.91;;;21.72;71.01
69622;BME280;56841;55.964;37.674;2022-07-03T04:57:24;99472.59;;;21.84;70.91
69622;BME280;56841;55.964;37.674;2022-07-03T04:59:50;99473.19;;;21.86;70.97
69622;BME280;56841;55.964;37.674;2022-07-03T05:02:16;99470.81;;;21.90;70.39
69622;BME280;56841;55.964;37.674;2022-07-03T05:04:42;99480.13;;;21.99;70.03
69622;BME280;56841;55.964;37.674;2022-07-03T05:07:07;99475.63;;;22.05;70.29
69622;BME280;56841;55.964;37.674;2022-07-03T05:09:33;99474.41;;;22.12;70.92
69622;BME280;56841;55.964;37.674;2022-07-03T05:11:59;99473.50;;;22.23;70.26
69622;BME280;56841;55.964;37.674;2022-07-03T05:14:25;99477.91;;;22.30;70.43
69622;BME280;56841;55.964;37.674;2022-07-03T05:16:51;99470.00;;;22.23;71.54
69622;BME280;56841;55.964;37.674;2022-07-03T05:19:16;99472.13;;;22.04;72.73
69622;BME280;56841;55.964;37.674;2022-07-03T05:21:42;99467.81;;;22.20;72.41
69622;BME280;56841;55.964;37.674;2022-07-03T05:24:08;99467.47;;;22.33;71.23
69622;BME280;56841;55.964;37.674;2022-07-03T05:26:34;99470.22;;;22.38;71.44
69622;BME280;56841;55.964;37.674;2022-07-03T05:29:00;99475.94;;;22.08;72.95
69622;BME280;56841;55.964;37.674;2022-07-03T05:31:26;99474.56;;;22.06;73.19
69622;BME280;56841;55.964;37.674;2022-07-03T05:33:51;99468.88;;;22.19;73.09
69622;BME280;56841;55.964;37.674;2022-07-03T05:36:17;99476.69;;;22.20;72.02
69622;BME280;56841;55.964;37.674;2022-07-03T05:38:43;99468.78;;;22.14;72.65
69622;BME280;56841;55.964;37.674;2022-07-03T05:41:27;99468.13;;;22.23;72.63
69622;BME280;56841;55.964;37.674;2022-07-03T05:43:53;99472.22;;;22.26;72.57
69622;BME280;56841;55.964;37.674;2022-07-03T05:46:19;99471.47;;;22.31;72.99
69622;BME280;56841;55.964;37.674;2022-07-03T05:48:45;99464.81;;;22.16;74.37
69622;BME280;56841;55.964;37.674;2022-07-03T05:51:11;99473.72;;;22.39;73.09
69622;BME280;56841;55.964;37.674;2022-07-03T05:53:36;99462.09;;;22.55;72.41
69622;BME280;56841;55.964;37.674;2022-07-03T05:56:03;99465.66;;;22.61;72.57
69622;BME280;56841;55.964;37.674;2022-07-03T05:58:28;99459.47;;;22.60;72.24
69622;BME280;56841;55.964;37.674;2022-07-03T06:00:54;99463.97;;;22.77;71.95
69622;BME280;56841;55.964;37.674;2022-07-03T06:03:20;99462.16;;;22.82;71.63
69622;BME280;56841;55.964;37.674;2022-07-03T06:05:46;99459.84;;;22.91;70.71
69622;BME280;56841;55.964;37.674;2022-07-03T06:08:11;99456.84;;;23.09;70.34
69622;BME280;56841;55.964;37.674;2022-07-03T06:10:37;99457.53;;;23.27;69.66
69622;BME280;56841;55.964;37.674;2022-07-03T06:13:03;99456.88;;;23.41;69.35
69622;BME280;56841;55.964;37.674;2022-07-03T06:15:29;99459.72;;;23.57;68.63
69622;BME280;56841;55.964;37.674;2022-07-03T06:17:55;99457.09;;;23.67;67.93
69622;BME280;56841;55.964;37.674;2022-07-03T06:20:21;99457.09;;;23.67;67.47
69622;BME280;56841;55.964;37.674;2022-07-03T06:22:47;99459.41;;;23.80;67.05
69622;BME280;56841;55.964;37.674;2022-07-03T06:25:12;99453.44;;;23.78;67.29
69622;BME280;56841;55.964;37.674;2022-07-03T06:27:38;99455.47;;;23.66;68.41
69622;BME280;56841;55.964;37.674;2022-07-03T06:30:05;99457.44;;;23.76;68.28
69622;BME280;56841;55.964;37.674;2022-07-03T06:32:31;99457.66;;;23.69;68.57
69622;BME280;56841;55.964;37.674;2022-07-03T06:34:56;99458.91;;;23.56;68.97
69622;BME280;56841;55.964;37.674;2022-07-03T06:37:22;99458.38;;;23.59;69.18
69622;BME280;56841;55.964;37.674;2022-07-03T06:39:48;99455.31;;;23.78;66.66
69622;BME280;56841;55.964;37.674;2022-07-03T06:42:14;99460.22;;;23.86;66.63
69622;BME280;56841;55.964;37.674;2022-07-03T06:44:40;99459.50;;;23.96;65.98
69622;BME280;56841;55.964;37.674;2022-07-03T06:47:07;99459.91;;;24.15;65.40
69622;BME280;56841;55.964;37.674;2022-07-03T06:49:33;99464.22;;;24.16;65.01
69622;BME280;56841;55.964;37.674;2022-07-03T06:52:00;99458.63;;;24.32;63.90
69622;BME280;56841;55.964;37.674;2022-07-03T06:54:26;99457.13;;;24.42;62.89
69622;BME280;56841;55.964;37.674;2022-07-03T06:56:52;99462.53;;;24.47;61.60
69622;BME280;56841;55.964;37.674;2022-07-03T06:59:17;99458.53;;;24.59;61.34
69622;BME280;56841;55.964;37.674;2022-07-03T07:01:43;99456.44;;;24.72;61.62
69622;BME280;56841;55.964;37.674;2022-07-03T07:04:09;99459.66;;;24.74;61.82
69622;BME280;56841;55.964;37.674;2022-07-03T07:06:35;99456.75;;;24.86;61.74
69622;BME280;56841;55.964;37.674;2022-07-03T07:09:03;99457.59;;;24.96;62.21
69622;BME280;56841;55.964;37.674;2022-07-03T07:11:29;99456.31;;;25.14;59.46
69622;BME280;56841;55.964;37.674;2022-07-03T07:13:55;99453.38;;;25.31;57.70
69622;BME280;56841;55.964;37.674;2022-07-03T07:16:21;99461.75;;;25.40;57.29
69622;BME280;56841;55.964;37.674;2022-07-03T07:18:47;99460.97;;;25.55;57.09
69622;BME280;56841;55.964;37.674;2022-07-03T07:21:13;99469.06;;;25.65;55.77
69622;BME280;56841;55.964;37.674;2022-07-03T07:23:39;99464.75;;;25.59;55.04
69622;BME280;56841;55.964;37.674;2022-07-03T07:26:05;99462.59;;;25.71;54.92
69622;BME280;56841;55.964;37.674;2022-07-03T07:28:31;99465.28;;;25.86;52.18
69622;BME280;56841;55.964;37.674;2022-07-03T07:30:59;99465.56;;;25.95;51.22
69622;BME280;56841;55.964;37.674;2022-07-03T07:33:25;99462.84;;;26.00;52.65
69622;BME280;56841;55.964;37.674;2022-07-03T07:35:51;99462.53;;;26.12;52.27
69622;BME280;56841;55.964;37.674;2022-07-03T07:38:17;99462.25;;;26.23;52.16
69622;BME280;56841;55.964;37.674;2022-07-03T07:40:44;99468.78;;;26.22;49.56
69622;BME280;56841;55.964;37.674;2022-07-03T07:43:10;99471.72;;;26.36;49.30
69622;BME280;56841;55.964;37.674;2022-07-03T07:45:35;99466.00;;;26.43;49.91
69622;BME280;56841;55.964;37.674;2022-07-03T07:48:02;99461.41;;;26.54;49.58
69622;BME280;56841;55.964;37.674;2022-07-03T07:50:28;99462.97;;;26.65;50.20
69622;BME280;56841;55.964;37.674;2022-07-03T07:52:54;99469.19;;;26.70;49.07
69622;BME280;56841;55.964;37.674;2022-07-03T07:55:20;99461.31;;;26.69;47.94
69622;BME280;56841;55.964;37.674;2022-07-03T07:57:46;99468.34;;;26.75;48.62
69622;BME280;56841;55.964;37.674;2022-07-03T08:00:17;99464.22;;;26.88;48.32
69622;BME280;56841;55.964;37.674;2022-07-03T08:02:43;99464.44;;;26.97;48.31
69622;BME280;56841;55.964;37.674;2022-07-03T08:05:28;99460.06;;;27.01;47.24
69622;BME280;56841;55.964;37.674;2022-07-03T08:10:45;99462.53;;;26.97;48.10
69622;BME280;56841;55.964;37.674;2022-07-03T08:13:12;99457.88;;;27.08;46.77
69622;BME280;56841;55.964;37.674;2022-07-03T08:15:40;99452.47;;;27.08;46.07
69622;BME280;56841;55.964;37.674;2022-07-03T08:18:06;99458.41;;;27.15;47.04
69622;BME280;56841;55.964;37.674;2022-07-03T08:20:32;99457.84;;;27.18;45.30
69622;BME280;56841;55.964;37.674;2022-07-03T08:22:58;99459.16;;;27.26;45.04
69622;BME280;56841;55.964;37.674;2022-07-03T08:25:25;99460.44;;;27.33;43.35
69622;BME280;56841;55.964;37.674;2022-07-03T08:27:51;99458.03;;;27.32;43.22
69622;BME280;56841;55.964;37.674;2022-07-03T08:30:18;99460.06;;;27.50;44.30
69622;BME280;56841;55.964;37.674;2022-07-03T08:32:46;99455.44;;;27.51;44.29
69622;BME280;56841;55.964;37.674;2022-07-03T08:35:13;99465.72;;;27.54;43.31
69622;BME280;56841;55.964;37.674;2022-07-03T08:37:39;99461.59;;;27.61;44.41
69622;BME280;56841;55.964;37.674;2022-07-03T08:40:10;99464.03;;;27.63;43.80
69622;BME280;56841;55.964;37.674;2022-07-03T08:42:37;99460.69;;;27.71;44.31
69622;BME280;56841;55.964;37.674;2022-07-03T08:45:06;99461.81;;;27.65;44.11
69622;BME280;56841;55.964;37.674;2022-07-03T08:47:33;99456.06;;;27.72;43.15
69622;BME280;56841;55.964;37.674;2022-07-03T08:50:02;99460.41;;;27.78;42.86
69622;BME280;56841;55.964;37.674;2022-07-03T08:52:30;99455.22;;;27.81;42.61
69622;BME280;56841;55.964;37.674;2022-07-03T08:54:56;99448.69;;;27.82;42.18
69622;BME280;56841;55.964;37.674;2022-07-03T08:57:23;99451.03;;;27.94;42.03
69622;BME280;56841;55.964;37.674;2022-07-03T08:59:52;99443.97;;;27.93;42.57
69622;BME280;56841;55.964;37.674;2022-07-03T09:02:18;99445.31;;;27.96;42.98
69622;BME280;56841;55.964;37.674;2022-07-03T09:04:45;99450.72;;;27.96;43.33
69622;BME280;56841;55.964;37.674;2022-07-03T09:07:13;99454.69;;;28.08;43.46
69622;BME280;56841;55.964;37.674;2022-07-03T09:09:40;99454.88;;;28.17;42.52
69622;BME280;56841;55.964;37.674;2022-07-03T09:12:06;99454.81;;;28.22;43.08
69622;BME280;56841;55.964;37.674;2022-07-03T09:14:32;99453.66;;;28.28;42.94
69622;BME280;56841;55.964;37.674;2022-07-03T09:16:58;99457.47;;;28.27;43.22
69622;BME280;56841;55.964;37.674;2022-07-03T09:19:47;99454.34;;;28.15;43.41
69622;BME280;56841;55.964;37.674;2022-07-03T09:22:28;99445.41;;;28.15;42.83
69622;BME280;56841;55.964;37.674;2022-07-03T09:25:04;99447.19;;;28.24;43.16
69622;BME280;56841;55.964;37.674;2022-07-03T09:27:30;99451.53;;;28.25;42.96
69622;BME280;56841;55.964;37.674;2022-07-03T09:32:51;99453.06;;;28.07;41.99
69622;BME280;56841;55.964;37.674;2022-07-03T09:35:17;99451.53;;;28.25;41.98
69622;BME280;56841;55.964;37.674;2022-07-03T09:38:03;99440.59;;;28.30;41.14
69622;BME280;56841;55.964;37.674;2022-07-03T09:40:54;99454.09;;;28.41;41.59
69622;BME280;56841;55.964;37.674;2022-07-03T09:43:30;99457.94;;;28.34;42.79
69622;BME280;56841;55.964;37.674;2022-07-03T09:46:00;99451.09;;;28.37;43.46
69622;BME280;56841;55.964;37.674;2022-07-03T09:51:21;99453.28;;;28.40;43.38
69622;BME280;56841;55.964;37.674;2022-07-03T09:53:59;99448.00;;;28.25;42.40
69622;BME280;56841;55.964;37.674;2022-07-03T09:56:43;99452.84;;;28.28;41.89
69622;BME280;56841;55.964;37.674;2022-07-03T09:59:10;99456.19;;;28.49;41.79
69622;BME280;56841;55.964;37.674;2022-07-03T10:01:43;99439.56;;;28.50;42.23
69622;BME280;56841;55.964;37.674;2022-07-03T10:04:20;99439.34;;;28.47;42.44
69622;BME280;56841;55.964;37.674;2022-07-03T10:09:21;99436.72;;;28.61;41.46
69622;BME280;56841;55.964;37.674;2022-07-03T10:11:47;99437.66;;;28.51;41.83
69622;BME280;56841;55.964;37.674;2022-07-03T10:14:15;99442.88;;;28.47;42.78
69622;BME280;56841;55.964;37.674;2022-07-03T10:16:42;99441.88;;;28.38;42.94
69622;BME280;56841;55.964;37.674;2022-07-03T10:19:15;99442.66;;;28.44;42.65
69622;BME280;56841;55.964;37.674;2022-07-03T10:21:43;99447.91;;;28.59;42.10
69622;BME280;56841;55.964;37.674;2022-07-03T10:24:12;99442.88;;;28.47;40.90
69622;BME280;56841;55.964;37.674;2022-07-03T10:26:39;99441.78;;;28.48;40.14
69622;BME280;56841;55.964;37.674;2022-07-03T10:29:07;99446.22;;;28.63;39.82
69622;BME280;56841;55.964;37.674;2022-07-03T10:31:33;99431.75;;;28.68;39.81
69622;BME280;56841;55.964;37.674;2022-07-03T10:33:59;99440.88;;;28.77;39.06
69622;BME280;56841;55.964;37.674;2022-07-03T10:36:26;99436.69;;;28.85;38.91
69622;BME280;56841;55.964;37.674;2022-07-03T10:38:55;99429.50;;;28.94;39.38
69622;BME280;56841;55.964;37.674;2022-07-03T10:41:30;99438.78;;;29.12;39.95
69622;BME280;56841;55.964;37.674;2022-07-03T10:44:18;99435.19;;;29.16;39.55
69622;BME280;56841;55.964;37.674;2022-07-03T10:50:15;99432.44;;;28.97;38.86
69622;BME280;56841;55.964;37.674;2022-07-03T10:52:42;99434.06;;;28.79;38.66
69622;BME280;56841;55.964;37.674;2022-07-03T10:55:09;99431.25;;;28.85;38.28
69622;BME280;56841;55.964;37.674;2022-07-03T10:57:37;99429.56;;;28.89;38.27
69622;BME280;56841;55.964;37.674;2022-07-03T11:02:42;99415.81;;;29.04;38.64
69622;BME280;56841;55.964;37.674;2022-07-03T11:05:19;99421.66;;;29.11;37.83
69622;BME280;56841;55.964;37.674;2022-07-03T11:13:10;99412.41;;;29.31;37.73
69622;BME280;56841;55.964;37.674;2022-07-03T11:15:53;99424.50;;;29.39;38.62
69622;BME280;56841;55.964;37.674;2022-07-03T11:18:32;99413.47;;;29.49;38.43
69622;BME280;56841;55.964;37.674;2022-07-03T11:21:08;99415.31;;;30.00;36.54
69622;BME280;56841;55.964;37.674;2022-07-03T11:41:42;99402.16;;;36.52;27.24
69622;BME280;56841;55.964;37.674;2022-07-03T11:44:15;99394.72;;;37.49;25.95
69622;BME280;56841;55.964;37.674;2022-07-03T11:46:47;99395.28;;;37.70;24.57
69622;BME280;56841;55.964;37.674;2022-07-03T11:51:42;99383.88;;;37.40;24.90
69622;BME280;56841;55.964;37.674;2022-07-03T11:54:08;99376.59;;;36.92;25.40
69622;BME280;56841;55.964;37.674;2022-07-03T11:56:36;99392.25;;;37.44;24.80
69622;BME280;56841;55.964;37.674;2022-07-03T11:59:04;99383.88;;;37.40;24.73
69622;BME280;56841;55.964;37.674;2022-07-03T12:01:32;99388.53;;;37.68;24.08
69622;BME280;56841;55.964;37.674;2022-07-03T12:04:11;99387.44;;;38.36;23.42
69622;BME280;56841;55.964;37.674;2022-07-03T12:06:53;99381.41;;;38.14;23.18
69622;BME280;56841;55.964;37.674;2022-07-03T12:09:29;99379.19;;;38.20;23.23
69622;BME280;56841;55.964;37.674;2022-07-03T12:14:49;99377.97;;;38.53;22.57
69622;BME280;56841;55.964;37.674;2022-07-03T12:19:48;99369.19;;;39.25;22.05
69622;BME280;56841;55.964;37.674;2022-07-03T12:22:28;99371.72;;;39.99;21.38
69622;BME280;56841;55.964;37.674;2022-07-03T12:27:31;99368.91;;;40.18;21.81
69622;BME280;56841;55.964;37.674;2022-07-03T12:29:58;99365.81;;;40.54;20.78
69622;BME280;56841;55.964;37.674;2022-07-03T12:32:24;99370.69;;;40.34;20.39
69622;BME280;56841;55.964;37.674;2022-07-03T12:34:50;99366.09;;;40.15;20.41
69622;BME280;56841;55.964;37.674;2022-07-03T12:37:16;99367.81;;;40.26;20.66
69622;BME280;56841;55.964;37.674;2022-07-03T12:39:48;99367.25;;;40.70;19.92
69622;BME280;56841;55.964;37.674;2022-07-03T12:42:15;99353.66;;;41.26;19.73
69622;BME280;56841;55.964;37.674;2022-07-03T12:44:40;99365.94;;;41.25;20.12
69622;BME280;56841;55.964;37.674;2022-07-03T12:47:06;99360.00;;;40.92;19.76
69622;BME280;56841;55.964;37.674;2022-07-03T12:49:33;99359.03;;;40.78;20.32
69622;BME280;56841;55.964;37.674;2022-07-03T12:51:59;99355.53;;;40.81;20.15
69622;BME280;56841;55.964;37.674;2022-07-03T12:54:32;99356.94;;;40.41;20.68
69622;BME280;56841;55.964;37.674;2022-07-03T12:57:12;99358.81;;;40.90;20.26
69622;BME280;56841;55.964;37.674;2022-07-03T13:00:10;99358.13;;;41.78;19.85
69622;BME280;56841;55.964;37.674;2022-07-03T13:02:39;99346.47;;;41.58;20.16
69622;BME280;56841;55.964;37.674;2022-07-03T13:05:21;99348.03;;;42.04;19.91
69622;BME280;56841;55.964;37.674;2022-07-03T13:07:50;99352.03;;;42.10;20.02
69622;BME280;56841;55.964;37.674;2022-07-03T13:10:18;99343.72;;;42.10;20.56
69622;BME280;56841;55.964;37.674;2022-07-03T13:12:46;99342.53;;;41.59;20.18
69622;BME280;56841;55.964;37.674;2022-07-03T13:15:13;99341.16;;;41.42;20.51
69622;BME280;56841;55.964;37.674;2022-07-03T13:20:33;99339.88;;;41.74;20.60
69622;BME280;56841;55.964;37.674;2022-07-03T13:23:02;99335.41;;;42.10;19.85
69622;BME280;56841;55.964;37.674;2022-07-03T13:25:30;99336.47;;;42.57;19.71
69622;BME280;56841;55.964;37.674;2022-07-03T13:28:10;99342.75;;;42.43;19.04
69622;BME280;56841;55.964;37.674;2022-07-03T13:30:37;99341.97;;;42.50;18.76
69622;BME280;56841;55.964;37.674;2022-07-03T13:33:04;99334.88;;;42.63;18.87
69622;BME280;56841;55.964;37.674;2022-07-03T13:35:31;99336.56;;;42.78;19.35
69622;BME280;56841;55.964;37.674;2022-07-03T13:37:58;99330.28;;;42.96;18.66
69622;BME280;56841;55.964;37.674;2022-07-03T13:40:24;99329.56;;;43.20;18.04
69622;BME280;56841;55.964;37.674;2022-07-03T13:42:50;99328.72;;;43.05;18.85
69622;BME280;56841;55.964;37.674;2022-07-03T13:45:16;99329.47;;;42.92;18.52
69622;BME280;56841;55.964;37.674;2022-07-03T13:47:42;99326.63;;;42.74;19.04
69622;BME280;56841;55.964;37.674;2022-07-03T13:50:09;99320.00;;;42.16;19.51
69622;BME280;56841;55.964;37.674;2022-07-03T13:52:35;99323.41;;;42.65;19.31
69622;BME280;56841;55.964;37.674;2022-07-03T13:55:03;99316.44;;;42.19;19.59
69622;BME280;56841;55.964;37.674;2022-07-03T13:57:29;99319.53;;;42.07;19.62
69622;BME280;56841;55.964;37.674;2022-07-03T13:59:55;99312.44;;;42.09;19.48
69622;BME280;56841;55.964;37.674;2022-07-03T14:02:20;99311.38;;;41.77;19.42
69622;BME280;56841;55.964;37.674;2022-07-03T14:04:46;99319.59;;;41.62;19.55
69622;BME280;56841;55.964;37.674;2022-07-03T14:07:12;99314.47;;;41.64;19.81
69622;BME280;56841;55.964;37.674;2022-07-03T14:09:38;99315.97;;;41.55;19.86
69622;BME280;56841;55.964;37.674;2022-07-03T14:12:04;99316.13;;;41.76;19.28
69622;BME280;56841;55.964;37.674;2022-07-03T14:14:31;99316.91;;;41.73;18.82
69622;BME280;56841;55.964;37.674;2022-07-03T14:16:57;99318.47;;;41.74;18.31
69622;BME280;56841;55.964;37.674;2022-07-03T14:19:23;99307.22;;;41.53;18.11
69622;BME280;56841;55.964;37.674;2022-07-03T14:21:48;99312.81;;;41.15;17.67